createdAt,value
2023-03-26T00:02:14.290Z,73.96
2023-03-26T00:04:42.906Z,73.80
2023-03-26T00:07:12.903Z,73.80
2023-03-26T00:09:41.853Z,73.89
2023-03-26T00:12:10.944Z,74.12
2023-03-26T00:14:41.133Z,74.27
2023-03-26T00:17:09.722Z,74.66
2023-03-26T00:19:38.436Z,74.14
2023-03-26T00:22:07.315Z,74.53
2023-03-26T00:24:37.795Z,74.94
2023-03-26T00:27:06.776Z,75.17
2023-03-26T00:29:36.034Z,75.39
2023-03-26T00:32:05.363Z,74.96
2023-03-26T00:34:34.768Z,75.93
2023-03-26T00:37:03.537Z,76.18
2023-03-26T00:39:33.922Z,75.96
2023-03-26T00:42:07.194Z,75.91
2023-03-26T00:44:36.112Z,76.06
2023-03-26T00:47:04.771Z,75.01
2023-03-26T00:49:34.045Z,75.44
2023-03-26T00:52:03.716Z,75.43
2023-03-26T00:54:32.529Z,75.38
2023-03-26T00:57:01.257Z,75.58
2023-03-26T00:59:30.749Z,75.64
2023-03-26T01:01:59.225Z,75.89
2023-03-26T01:04:34.885Z,76.49
2023-03-26T01:07:12.975Z,76.91
2023-03-26T01:09:45.938Z,77.17
2023-03-26T01:12:17.294Z,77.25
2023-03-26T01:14:49.605Z,77.25
2023-03-26T01:17:19.534Z,77.73
2023-03-26T01:20:13.055Z,77.81
2023-03-26T01:22:47.754Z,78.16
2023-03-26T01:25:17.285Z,78.20
2023-03-26T01:27:55.989Z,78.45
2023-03-26T01:30:42.849Z,78.76
2023-03-26T01:33:41.817Z,78.97
2023-03-26T01:36:32.730Z,79.03
2023-03-26T01:39:49.661Z,78.76
2023-03-26T01:43:05.676Z,78.30
2023-03-26T01:45:38.548Z,77.73
2023-03-26T01:48:07.906Z,77.08
2023-03-26T01:50:36.549Z,76.77
2023-03-26T01:53:06.402Z,76.56
2023-03-26T01:56:18.885Z,76.37
2023-03-26T01:59:30.661Z,76.52
2023-03-26T02:02:43.612Z,76.49
2023-03-26T02:06:06.511Z,76.08
2023-03-26T02:08:42.769Z,76.51
2023-03-26T02:11:16.476Z,76.52
2023-03-26T02:13:46.556Z,76.53
2023-03-26T02:16:17.625Z,76.79
2023-03-26T02:18:51.575Z,76.65
2023-03-26T02:21:23.366Z,76.29
2023-03-26T02:24:03.376Z,76.34
2023-03-26T02:26:37.881Z,76.22
2023-03-26T02:29:09.626Z,75.97
2023-03-26T02:31:40.003Z,75.94
2023-03-26T02:34:08.669Z,75.74
2023-03-26T02:36:39.022Z,75.57
2023-03-26T02:39:08.030Z,75.51
2023-03-26T02:41:39.159Z,75.63
2023-03-26T02:44:10.484Z,76.03
2023-03-26T02:46:57.739Z,76.34
2023-03-26T02:49:49.371Z,76.19
2023-03-26T02:52:24.098Z,76.00
2023-03-26T02:54:53.800Z,75.60
2023-03-26T02:57:25.748Z,75.81
2023-03-26T03:00:16.927Z,76.00
2023-03-26T03:03:05.527Z,76.01
2023-03-26T03:05:34.252Z,76.11
2023-03-26T03:08:50.172Z,76.07
2023-03-26T03:11:25.118Z,76.12
2023-03-26T03:13:54.515Z,76.48
2023-03-26T03:16:25.056Z,76.65
2023-03-26T03:18:58.108Z,77.07
2023-03-26T03:21:49.278Z,77.47
2023-03-26T03:24:18.840Z,78.05
2023-03-26T03:26:50.542Z,78.30
2023-03-26T03:29:36.628Z,78.45
2023-03-26T03:32:49.263Z,78.34
2023-03-26T03:35:21.351Z,78.34
2023-03-26T03:37:52.625Z,78.12
2023-03-26T03:40:21.408Z,77.98
2023-03-26T03:42:50.237Z,77.95
2023-03-26T03:45:26.203Z,77.39
2023-03-26T03:48:08.661Z,76.34
2023-03-26T03:50:41.313Z,75.68
2023-03-26T03:53:56.904Z,75.03
2023-03-26T03:57:09.045Z,74.86
2023-03-26T03:59:48.057Z,75.04
2023-03-26T04:02:26.873Z,75.19
2023-03-26T04:04:58.936Z,75.11
2023-03-26T04:07:33.217Z,74.87
2023-03-26T04:10:10.293Z,74.64
2023-03-26T04:12:57.634Z,74.40
2023-03-26T04:15:57.314Z,74.68
2023-03-26T04:18:27.927Z,74.74
2023-03-26T04:21:02.579Z,74.52
2023-03-26T04:23:32.416Z,74.16
2023-03-26T04:26:10.670Z,74.17
2023-03-26T04:29:28.327Z,73.81
2023-03-26T04:31:59.387Z,73.83
2023-03-26T04:34:32.325Z,73.57
2023-03-26T04:37:21.393Z,73.76
2023-03-26T04:39:55.520Z,73.81
2023-03-26T04:42:46.498Z,73.85
2023-03-26T04:45:25.605Z,73.50
2023-03-26T04:47:58.646Z,73.21
2023-03-26T04:50:27.760Z,72.70
2023-03-26T04:52:58.162Z,72.49
2023-03-26T04:57:03.273Z,72.00
2023-03-26T04:59:37.859Z,71.68
2023-03-26T05:02:10.937Z,71.42
2023-03-26T05:04:48.661Z,71.15
2023-03-26T05:07:21.224Z,71.33
2023-03-26T05:09:52.658Z,71.07
2023-03-26T05:12:25.853Z,70.98
2023-03-26T05:15:17.001Z,70.31
2023-03-26T05:18:04.583Z,70.41
2023-03-26T05:20:39.728Z,70.05
2023-03-26T05:23:09.650Z,69.50
2023-03-26T05:25:41.516Z,69.72
2023-03-26T05:28:20.912Z,69.70
2023-03-26T05:30:55.820Z,69.73
2023-03-26T05:33:26.433Z,69.20
2023-03-26T05:36:09.625Z,68.69
2023-03-26T05:38:38.392Z,68.40
2023-03-26T05:41:10.842Z,68.51
2023-03-26T05:43:45.029Z,68.55
2023-03-26T05:46:20.546Z,68.71
2023-03-26T05:48:49.985Z,68.55
2023-03-26T05:51:18.842Z,68.91
2023-03-26T05:53:58.082Z,69.22
2023-03-26T05:56:54.323Z,69.49
2023-03-26T06:00:16.688Z,69.66
2023-03-26T06:02:47.045Z,69.83
2023-03-26T06:05:37.776Z,70.21
2023-03-26T06:08:13.542Z,71.78
2023-03-26T06:10:51.065Z,72.42
2023-03-26T06:13:19.910Z,73.24
2023-03-26T06:15:50.837Z,73.78
2023-03-26T06:18:34.921Z,74.50
2023-03-26T06:21:24.137Z,74.99
2023-03-26T06:24:08.564Z,75.63
2023-03-26T06:26:54.573Z,75.59
2023-03-26T06:29:49.751Z,76.29
2023-03-26T06:32:28.756Z,78.09
2023-03-26T06:35:07.328Z,77.64
2023-03-26T06:37:36.501Z,79.10
2023-03-26T06:40:06.197Z,79.82
2023-03-26T06:43:21.856Z,79.88
2023-03-26T06:46:08.121Z,79.92
2023-03-26T06:48:40.581Z,81.18
2023-03-26T06:51:32.589Z,80.78
2023-03-26T06:54:10.133Z,81.16
2023-03-26T06:57:38.296Z,80.09
2023-03-26T07:00:25.796Z,82.02
2023-03-26T07:03:53.385Z,80.06
2023-03-26T07:06:40.735Z,81.90
2023-03-26T07:09:30.637Z,80.99
2023-03-26T07:12:40.281Z,80.45
2023-03-26T07:15:29.088Z,78.65
2023-03-26T07:18:13.338Z,77.71
2023-03-26T07:20:46.308Z,77.77
2023-03-26T07:23:20.196Z,76.57
2023-03-26T07:25:59.122Z,75.71
2023-03-26T07:29:16.375Z,77.92
2023-03-26T07:32:59.261Z,75.36
2023-03-26T07:36:37.281Z,75.33
2023-03-26T07:40:14.092Z,75.07
2023-03-26T07:43:13.593Z,75.40
2023-03-26T07:46:03.096Z,74.18
2023-03-26T07:48:49.048Z,73.54
2023-03-26T07:51:58.988Z,73.65
2023-03-26T07:54:51.626Z,72.78
2023-03-26T07:58:17.112Z,71.46
2023-03-26T08:02:12.559Z,70.98
2023-03-26T08:05:06.031Z,70.47
2023-03-26T08:08:33.819Z,70.10
2023-03-26T08:11:50.528Z,70.63
2023-03-26T08:14:51.545Z,70.20
2023-03-26T08:17:54.583Z,70.83
2023-03-26T08:21:04.614Z,70.16
2023-03-26T08:23:54.128Z,68.93
2023-03-26T08:26:47.581Z,70.21
2023-03-26T08:29:40.103Z,69.50
2023-03-26T08:32:17.721Z,68.12
2023-03-26T08:34:46.971Z,67.22
2023-03-26T08:37:15.885Z,66.19
2023-03-26T08:39:45.398Z,64.42
2023-03-26T08:42:19.616Z,63.54
2023-03-26T08:45:29.528Z,63.53
2023-03-26T08:48:40.962Z,63.10
2023-03-26T08:51:28.852Z,63.09
2023-03-26T08:54:09.836Z,62.93
2023-03-26T08:57:19.667Z,62.54
2023-03-26T09:00:44.694Z,60.48
2023-03-26T09:03:47.410Z,60.67
2023-03-26T09:06:37.474Z,60.75
2023-03-26T09:09:24.777Z,60.68
2023-03-26T09:11:59.865Z,58.83
2023-03-26T09:14:47.048Z,57.92
2023-03-26T09:18:01.020Z,56.96
2023-03-26T09:20:54.812Z,57.56
2023-03-26T09:23:41.620Z,57.65
2023-03-26T09:26:46.772Z,57.61
2023-03-26T09:29:58.998Z,56.42
2023-03-26T09:38:26.898Z,55.18
2023-03-26T09:41:07.622Z,54.78
2023-03-26T09:44:01.237Z,54.16
2023-03-26T09:46:46.189Z,52.73
2023-03-26T09:49:25.116Z,53.34
2023-03-26T09:52:15.001Z,52.91
2023-03-26T09:55:02.328Z,52.94
2023-03-26T09:57:58.585Z,52.74
2023-03-26T10:01:14.915Z,52.93
2023-03-26T10:04:13.871Z,52.43
2023-03-26T10:07:09.049Z,52.38
2023-03-26T10:10:44.349Z,53.02
2023-03-26T10:13:53.592Z,52.78
2023-03-26T10:16:49.731Z,52.78
2023-03-26T10:19:53.519Z,52.27
2023-03-26T10:22:55.496Z,51.99
2023-03-26T10:25:24.176Z,52.04
2023-03-26T10:28:36.482Z,51.83
2023-03-26T10:31:19.875Z,51.91
2023-03-26T10:34:07.192Z,51.19
2023-03-26T10:37:05.512Z,51.37
2023-03-26T10:40:27.649Z,52.32
2023-03-26T10:43:19.936Z,51.56
2023-03-26T10:46:04.488Z,50.93
2023-03-26T10:49:16.179Z,51.05
2023-03-26T10:51:55.055Z,49.76
2023-03-26T10:55:05.316Z,49.14
2023-03-26T10:57:50.202Z,48.92
2023-03-26T11:00:29.235Z,49.37
2023-03-26T11:03:25.873Z,49.15
2023-03-26T11:06:25.781Z,49.32
2023-03-26T11:09:06.264Z,48.47
2023-03-26T11:11:50.732Z,49.01
2023-03-26T11:15:07.150Z,48.54
2023-03-26T11:17:54.415Z,48.58
2023-03-26T11:20:42.002Z,49.34
2023-03-26T11:24:05.177Z,48.29
2023-03-26T11:27:14.505Z,47.59
2023-03-26T11:30:08.030Z,47.18
2023-03-26T11:32:54.547Z,46.47
2023-03-26T11:35:40.903Z,46.16
2023-03-26T11:38:26.629Z,46.03
2023-03-26T11:40:59.104Z,46.82
2023-03-26T11:44:26.273Z,47.53
2023-03-26T11:47:02.234Z,45.53
2023-03-26T11:49:31.205Z,45.56
2023-03-26T11:52:01.155Z,45.44
2023-03-26T11:54:30.338Z,44.64
2023-03-26T11:57:19.319Z,44.78
2023-03-26T12:00:18.625Z,44.40
2023-03-26T12:02:48.454Z,44.18
2023-03-26T12:05:26.846Z,43.80
2023-03-26T12:08:04.496Z,44.42
2023-03-26T12:10:39.577Z,43.59
2023-03-26T12:13:35.895Z,43.18
2023-03-26T12:16:21.078Z,43.46
2023-03-26T12:19:22.461Z,42.49
2023-03-26T12:21:53.320Z,43.11
2023-03-26T12:24:32.285Z,43.20
2023-03-26T12:27:20.563Z,43.25
2023-03-26T12:30:00.285Z,43.35
2023-03-26T12:32:53.247Z,43.46
2023-03-26T12:35:31.195Z,43.84
2023-03-26T12:38:25.014Z,44.17
2023-03-26T12:42:52.741Z,44.17
2023-03-26T12:44:54.771Z,44.18
2023-03-26T12:47:59.157Z,44.66
2023-03-26T12:50:18.617Z,44.06
2023-03-26T12:53:12.709Z,44.47
2023-03-26T12:55:56.337Z,47.97
2023-03-26T12:59:12.030Z,53.32
2023-03-26T13:01:43.304Z,59.02
2023-03-26T13:04:49.223Z,63.75
2023-03-26T13:07:43.341Z,65.39
2023-03-26T13:10:33.188Z,70.60
2023-03-26T13:13:10.840Z,73.98
2023-03-26T13:15:46.712Z,76.33
2023-03-26T13:18:38.037Z,78.51
2023-03-26T13:21:13.296Z,80.66
2023-03-26T13:24:06.529Z,81.04
2023-03-26T13:26:46.595Z,82.68
2023-03-26T13:29:23.850Z,79.36
2023-03-26T13:32:32.136Z,78.93
2023-03-26T13:35:47.288Z,77.01
2023-03-26T13:39:00.428Z,75.67
2023-03-26T13:42:02.299Z,73.12
2023-03-26T13:45:06.033Z,73.20
2023-03-26T13:47:41.424Z,72.42
2023-03-26T13:50:39.688Z,71.56
2023-03-26T13:53:22.950Z,69.62
2023-03-26T13:55:59.351Z,68.01
2023-03-26T13:58:47.826Z,66.24
2023-03-26T14:01:43.756Z,65.89
2023-03-26T14:04:40.957Z,64.79
2023-03-26T14:07:24.982Z,65.99
2023-03-26T14:10:26.102Z,66.18
2023-03-26T14:13:06.067Z,66.57
2023-03-26T14:16:06.747Z,65.00
2023-03-26T14:18:51.698Z,65.89
2023-03-26T14:21:50.588Z,64.20
2023-03-26T14:25:17.273Z,64.09
2023-03-26T14:28:13.408Z,64.90
2023-03-26T14:30:48.484Z,64.51
2023-03-26T14:33:30.593Z,60.95
2023-03-26T14:36:15.730Z,59.48
2023-03-26T14:39:13.387Z,57.10
2023-03-26T14:41:56.199Z,57.38
2023-03-26T14:44:30.931Z,58.34
2023-03-26T14:47:21.879Z,56.31
2023-03-26T14:50:21.810Z,53.39
2023-03-26T14:53:01.318Z,52.52
2023-03-26T14:55:54.350Z,52.92
2023-03-26T14:59:03.610Z,53.41
2023-03-26T15:02:09.831Z,55.73
2023-03-26T15:04:56.996Z,56.60
2023-03-26T15:07:52.831Z,56.54
2023-03-26T15:10:55.207Z,58.32
2023-03-26T15:14:31.612Z,57.52
2023-03-26T15:17:11.222Z,58.55
2023-03-26T15:20:27.932Z,56.18
2023-03-26T15:23:43.124Z,55.16
2023-03-26T15:26:45.670Z,55.62
2023-03-26T15:29:46.084Z,54.81
2023-03-26T15:32:37.211Z,54.66
2023-03-26T15:35:57.022Z,54.71
2023-03-26T15:38:28.984Z,55.51
2023-03-26T15:41:22.143Z,54.95
2023-03-26T15:44:23.462Z,53.26
2023-03-26T15:47:38.896Z,52.08
2023-03-26T15:50:22.368Z,51.97
2023-03-26T15:53:02.911Z,51.95
2023-03-26T15:55:56.242Z,53.08
2023-03-26T15:58:48.358Z,53.91
2023-03-26T16:01:48.737Z,53.79
2023-03-26T16:04:28.300Z,52.26
2023-03-26T16:07:12.373Z,53.56
2023-03-26T16:09:56.102Z,53.51
2023-03-26T16:12:54.076Z,52.64
2023-03-26T16:15:32.332Z,54.15
2023-03-26T16:18:17.322Z,53.92
2023-03-26T16:20:51.087Z,54.99
2023-03-26T16:23:47.192Z,56.06
2023-03-26T16:26:35.808Z,55.85
2023-03-26T16:29:26.377Z,56.44
2023-03-26T16:32:31.467Z,56.03
2023-03-26T16:35:15.854Z,56.17
2023-03-26T16:37:52.892Z,56.31
2023-03-26T16:40:33.196Z,57.36
2023-03-26T16:43:23.089Z,58.08
2023-03-26T16:46:26.630Z,58.44
2023-03-26T16:49:12.577Z,58.67
2023-03-26T16:52:28.503Z,58.60
2023-03-26T16:55:38.567Z,58.28
2023-03-26T16:58:43.602Z,58.33
2023-03-26T17:01:41.692Z,58.16
2023-03-26T17:04:20.731Z,58.16
2023-03-26T17:07:01.998Z,58.35
2023-03-26T17:09:46.796Z,58.11
2023-03-26T17:12:34.404Z,58.15
2023-03-26T17:15:21.412Z,58.23
2023-03-26T17:18:11.543Z,58.61
2023-03-26T17:20:59.936Z,58.97
2023-03-26T17:24:18.184Z,58.21
2023-03-26T17:27:34.493Z,57.89
2023-03-26T17:30:43.923Z,58.13
2023-03-26T17:33:27.280Z,57.70
2023-03-26T17:36:41.359Z,57.43
2023-03-26T17:39:24.672Z,58.64
2023-03-26T17:42:26.258Z,57.72
2023-03-26T17:44:59.638Z,58.95
2023-03-26T17:48:03.110Z,59.05
2023-03-26T17:50:59.716Z,58.58
2023-03-26T17:53:36.204Z,59.93
2023-03-26T17:56:14.288Z,59.03
2023-03-26T17:58:54.932Z,58.64
2023-03-26T18:01:39.419Z,58.32
2023-03-26T18:04:19.878Z,58.36
2023-03-26T18:07:14.448Z,58.44
2023-03-26T18:10:20.251Z,58.66
2023-03-26T18:13:08.714Z,58.40
2023-03-26T18:15:50.983Z,58.60
2023-03-26T18:18:34.908Z,58.76
2023-03-26T18:21:09.459Z,59.23
2023-03-26T18:23:45.970Z,59.08
2023-03-26T18:26:18.349Z,58.39
2023-03-26T18:29:09.456Z,59.13
2023-03-26T18:31:41.791Z,59.00
2023-03-26T18:34:19.271Z,59.28
2023-03-26T18:37:11.503Z,59.46
2023-03-26T18:40:12.561Z,59.85
2023-03-26T18:42:49.165Z,60.32
2023-03-26T18:45:35.120Z,60.27
2023-03-26T18:48:11.500Z,60.36
2023-03-26T18:50:43.429Z,60.52
2023-03-26T18:53:22.622Z,60.54
2023-03-26T18:55:52.149Z,60.88
2023-03-26T18:58:41.932Z,61.08
2023-03-26T19:01:23.750Z,61.45
2023-03-26T19:03:54.746Z,61.53
2023-03-26T19:06:24.088Z,61.70
2023-03-26T19:08:53.469Z,61.71
2023-03-26T19:11:22.482Z,61.71
2023-03-26T19:14:06.979Z,61.46
2023-03-26T19:16:37.392Z,61.72
2023-03-26T19:19:08.196Z,61.90
2023-03-26T19:21:41.802Z,61.84
2023-03-26T19:24:12.318Z,61.59
2023-03-26T19:26:41.442Z,61.63
2023-03-26T19:29:15.971Z,61.72
2023-03-26T19:31:44.636Z,62.12
2023-03-26T19:34:17.981Z,62.20
2023-03-26T19:37:01.952Z,62.40
2023-03-26T19:39:50.767Z,62.53
2023-03-26T19:42:27.349Z,62.61
2023-03-26T19:45:22.040Z,63.05
2023-03-26T19:48:03.677Z,63.31
2023-03-26T19:50:42.666Z,63.35
2023-03-26T19:53:20.515Z,63.61
2023-03-26T19:55:57.637Z,63.67
2023-03-26T19:58:28.022Z,63.86
2023-03-26T20:00:57.484Z,64.08
2023-03-26T20:03:30.174Z,64.05
2023-03-26T20:05:58.818Z,64.28
2023-03-26T20:08:27.297Z,64.36
2023-03-26T20:10:57.062Z,64.62
2023-03-26T20:13:25.804Z,64.86
2023-03-26T20:16:10.777Z,64.93
2023-03-26T20:18:40.002Z,64.88
2023-03-26T20:21:25.619Z,64.92
2023-03-26T20:23:54.992Z,65.12
2023-03-26T20:26:24.331Z,65.62
2023-03-26T20:28:53.982Z,65.68
2023-03-26T20:31:25.390Z,65.52
2023-03-26T20:33:54.718Z,65.62
2023-03-26T20:36:33.229Z,65.35
2023-03-26T20:39:06.313Z,65.87
2023-03-26T20:41:35.962Z,65.74
2023-03-26T20:44:13.802Z,64.91
2023-03-26T20:46:43.572Z,64.71
2023-03-26T20:49:12.501Z,64.61
2023-03-26T20:51:45.347Z,64.63
2023-03-26T20:54:17.865Z,64.11
2023-03-26T20:56:48.095Z,63.42
2023-03-26T20:59:22.784Z,62.88
2023-03-26T21:01:51.780Z,62.82
2023-03-26T21:04:21.698Z,62.98
2023-03-26T21:06:50.875Z,63.03
2023-03-26T21:09:24.349Z,63.01
2023-03-26T21:12:00.816Z,62.37
2023-03-26T21:14:34.657Z,62.71
2023-03-26T21:17:03.263Z,63.00
2023-03-26T21:19:32.264Z,62.76
2023-03-26T21:22:20.059Z,62.83
2023-03-26T21:24:54.728Z,62.49
2023-03-26T21:27:29.196Z,62.67
2023-03-26T21:29:58.348Z,62.99
2023-03-26T21:32:27.166Z,63.32
2023-03-26T21:34:59.024Z,63.49
2023-03-26T21:37:28.660Z,63.72
2023-03-26T21:39:57.488Z,64.07
2023-03-26T21:42:29.570Z,63.90
2023-03-26T21:44:58.434Z,63.57
2023-03-26T21:47:27.254Z,63.02
2023-03-26T21:49:56.340Z,62.73
2023-03-26T21:52:25.453Z,62.73
2023-03-26T21:54:54.188Z,62.86
2023-03-26T21:57:34.184Z,62.98
2023-03-26T22:00:02.704Z,62.79
2023-03-26T22:02:46.588Z,62.78
2023-03-26T22:05:20.182Z,62.44
2023-03-26T22:07:48.621Z,62.51
2023-03-26T22:10:17.483Z,62.57
2023-03-26T22:12:45.938Z,62.00
2023-03-26T22:15:14.668Z,62.31
2023-03-26T22:17:43.143Z,61.83
2023-03-26T22:20:13.997Z,61.92
2023-03-26T22:22:48.975Z,62.12
2023-03-26T22:25:18.396Z,61.56
2023-03-26T22:27:47.528Z,61.57
2023-03-26T22:30:16.674Z,61.93
2023-03-26T22:32:45.849Z,61.25
2023-03-26T22:35:15.051Z,61.13
2023-03-26T22:37:43.576Z,61.70
2023-03-26T22:40:15.464Z,61.55
2023-03-26T22:42:44.125Z,62.16
2023-03-26T22:45:12.772Z,62.39
2023-03-26T22:47:41.287Z,62.50
2023-03-26T22:50:10.150Z,63.04
2023-03-26T22:52:41.097Z,62.86
2023-03-26T22:55:11.218Z,62.96
2023-03-26T22:57:39.948Z,63.04
2023-03-26T23:00:16.617Z,63.06
2023-03-26T23:02:46.785Z,63.56
2023-03-26T23:05:17.817Z,64.02
2023-03-26T23:07:46.321Z,64.02
2023-03-26T23:10:14.717Z,64.37
2023-03-26T23:12:43.207Z,64.12
2023-03-26T23:15:11.867Z,64.27
2023-03-26T23:17:41.148Z,64.73
2023-03-26T23:20:15.247Z,64.60
2023-03-26T23:22:44.624Z,65.23
2023-03-26T23:25:13.023Z,65.80
2023-03-26T23:27:41.686Z,66.14
2023-03-26T23:30:11.299Z,66.12
2023-03-26T23:32:39.789Z,66.49
2023-03-26T23:35:08.709Z,66.29
2023-03-26T23:37:37.222Z,66.02
2023-03-26T23:40:10.274Z,65.82
2023-03-26T23:42:38.954Z,65.79
2023-03-26T23:45:08.753Z,65.63
2023-03-26T23:47:37.628Z,65.45
2023-03-26T23:50:06.893Z,65.72
2023-03-26T23:52:37.683Z,65.24
2023-03-26T23:55:07.157Z,65.31
2023-03-26T23:57:37.411Z,65.09
